^^
Meteo Knjazevac Station Historical Data
Daily Summary for January 1, 2022 Units:  Metric    English   Both
Daily Weekly Monthly Yearly Custom
  High: Low: Average:
Temperature: 27.7 °C 5.8 °C 14.8 °C
Dew Point: 14.6 °C 5.4 °C 9.5 °C
Humidity: 99% 43.5% 74%
Wind Speed: 13km/h 0km/h 4.8km/h
Wind Gust: 17.7km/h - -
Wind- - West
Pressure: 1024.9 hPa 1021.2 hPa -
Precipitation: 0 mm    
Historical Graphs
 
 
Tabular Data for January 1, 2022
Time Temperature Dew Point Pressure Wind Wind Speed Wind Gust Humidity Rainfall Rate (Hourly) solar Conditions
00:04 8.8 °C 7.3 °C 1023.9 hPa NNW 3.5 km/h 3.2 km/h 90.4% 0 mm 0 W/m2
00:09 8.8 °C 7.3 °C 1023.9 hPa NNW 4.2 km/h 4.8 km/h 90.8% 0 mm 0 W/m2
00:14 8.8 °C 7.2 °C 1023.9 hPa NNW 3.4 km/h 4.8 km/h 90% 0 mm 0 W/m2
00:19 8.7 °C 7.2 °C 1023.9 hPa NNW 2.7 km/h 3.2 km/h 90% 0 mm 0 W/m2
00:24 8.7 °C 7.2 °C 1023.9 hPa NNW 3.5 km/h 3.2 km/h 90.7% 0 mm 0 W/m2
00:29 8.7 °C 7.5 °C 1023.9 hPa NNW 3.7 km/h 3.2 km/h 92.3% 0 mm 0 W/m2
00:34 8.7 °C 7.2 °C 1023.9 hPa North 4.5 km/h 4.8 km/h 90.4% 0 mm 0 W/m2
00:39 8.6 °C 7 °C 1023.9 hPa NNW 4.3 km/h 4.8 km/h 90.1% 0 mm 0 W/m2
00:44 8.5 °C 7.1 °C 1023.6 hPa NW 4.8 km/h 4.8 km/h 91% 0 mm 0 W/m2
00:49 8.5 °C 7.2 °C 1023.6 hPa NW 3.4 km/h 8 km/h 91.4% 0 mm 0 W/m2
00:54 8.5 °C 7.1 °C 1023.6 hPa ESE 2.7 km/h 3.2 km/h 90.9% 0 mm 0 W/m2
00:59 8.3 °C 6.9 °C 1023.6 hPa WNW 3.7 km/h 3.2 km/h 90.5% 0 mm 0 W/m2
01:04 8.3 °C 6.9 °C 1023.6 hPa NW 3.7 km/h 4.8 km/h 91% 0 mm 0 W/m2
01:09 8.3 °C 6.9 °C 1023.6 hPa NW 3.5 km/h 3.2 km/h 91% 0 mm 0 W/m2
01:14 8.2 °C 6.8 °C 1023.6 hPa WNW 4 km/h 4.8 km/h 91% 0 mm 0 W/m2
01:19 8.1 °C 6.8 °C 1023.9 hPa WNW 6.6 km/h 6.4 km/h 91.6% 0 mm 0 W/m2
01:24 8.1 °C 7.1 °C 1023.6 hPa WNW 6.6 km/h 9.7 km/h 93.5% 0 mm 0 W/m2
01:29 8.1 °C 6.8 °C 1023.6 hPa WNW 3.7 km/h 8 km/h 91.7% 0 mm 0 W/m2
01:34 7.9 °C 6.5 °C 1023.6 hPa WNW 5.6 km/h 5 km/h 91% 0 mm 0 W/m2
01:39 7.8 °C 6.7 °C 1023.6 hPa WNW 6 km/h 8 km/h 92.8% 0 mm 0 W/m2
01:44 7.6 °C 6.6 °C 1023.6 hPa West 4 km/h 8 km/h 93% 0 mm 0 W/m2
01:49 7.6 °C 6.5 °C 1023.6 hPa WNW 5.1 km/h 4.8 km/h 93% 0 mm 0 W/m2
01:54 7.5 °C 6.4 °C 1023.6 hPa NW 4 km/h 6.4 km/h 93% 0 mm 0 W/m2
01:59 7.4 °C 6.4 °C 1023.6 hPa WNW 5.8 km/h 4.8 km/h 93.4% 0 mm 0 W/m2
02:04 7.3 °C 6.3 °C 1023.6 hPa WNW 4.7 km/h 8 km/h 93.3% 0 mm 0 W/m2
02:09 7.2 °C 6.2 °C 1023.6 hPa WNW 4.2 km/h 4.8 km/h 93.2% 0 mm 0 W/m2
02:14 7.1 °C 6.2 °C 1023.6 hPa WNW 4.8 km/h 4.8 km/h 94% 0 mm 0 W/m2
02:19 7.1 °C 6.2 °C 1023.6 hPa WNW 5.1 km/h 4.8 km/h 94% 0 mm 0 W/m2
02:24 7 °C 6.1 °C 1023.6 hPa WNW 4.7 km/h 4.8 km/h 94% 0 mm 0 W/m2
02:29 7 °C 6.3 °C 1023.6 hPa WNW 4.5 km/h 6.4 km/h 94.9% 0 mm 0 W/m2
02:34 7 °C 6.3 °C 1023.6 hPa NW 5.5 km/h 6.4 km/h 95% 0 mm 0 W/m2
02:39 7 °C 6.3 °C 1023.6 hPa WNW 4.8 km/h 8 km/h 95% 0 mm 0 W/m2
02:44 7.1 °C 6.3 °C 1023.6 hPa WNW 4.8 km/h 4.8 km/h 95% 0 mm 0 W/m2
02:49 7.1 °C 6.3 °C 1023.6 hPa WNW 4.8 km/h 6.4 km/h 95% 0 mm 0 W/m2
02:54 7 °C 6.3 °C 1023.6 hPa West 5.1 km/h 4.8 km/h 95% 0 mm 0 W/m2
02:59 7 °C 6.3 °C 1023.6 hPa West 3.5 km/h 6.4 km/h 95% 0 mm 0 W/m2
03:04 6.9 °C 6.2 °C 1023.6 hPa West 4 km/h 3.2 km/h 95% 0 mm 0 W/m2
03:09 6.8 °C 6.1 °C 1023.6 hPa West 4 km/h 4.8 km/h 95% 0 mm 0 W/m2
03:14 6.8 °C 6.1 °C 1023.6 hPa WNW 3.2 km/h 4.8 km/h 95% 0 mm 0 W/m2
03:19 6.7 °C 5.9 °C 1023.9 hPa WNW 3.4 km/h 4.8 km/h 95% 0 mm 0 W/m2
03:24 6.6 °C 5.8 °C 1023.9 hPa WNW 4.2 km/h 4 km/h 95% 0 mm 0 W/m2
03:29 6.5 °C 5.8 °C 1023.9 hPa WNW 4 km/h 4.8 km/h 95% 0 mm 0 W/m2
03:34 6.5 °C 5.7 °C 1023.9 hPa NW 3.2 km/h 4.8 km/h 95% 0 mm 0 W/m2
03:39 6.4 °C 5.7 °C 1023.9 hPa WNW 3.7 km/h 4.8 km/h 95% 0 mm 0 W/m2
03:44 6.4 °C 5.7 °C 1023.9 hPa WNW 5.1 km/h 5 km/h 95.3% 0 mm 0 W/m2
03:49 6.4 °C 6.1 °C 1023.9 hPa West 5.8 km/h 6.4 km/h 97.2% 0 mm 0 W/m2
03:54 6.6 °C 6.3 °C 1023.9 hPa West 5 km/h 8 km/h 98% 0 mm 0 W/m2
03:59 6.6 °C 6.3 °C 1023.9 hPa West 5.5 km/h 6.4 km/h 98% 0 mm 0 W/m2
04:04 6.7 °C 6.3 °C 1023.9 hPa WNW 4 km/h 6.4 km/h 97.2% 0 mm 0 W/m2
04:09 6.7 °C 6.1 °C 1023.9 hPa WNW 5 km/h 6.4 km/h 96% 0 mm 0 W/m2
04:14 6.6 °C 5.9 °C 1023.9 hPa WNW 5.5 km/h 6.4 km/h 96% 0 mm 0 W/m2
04:19 6.5 °C 5.9 °C 1023.9 hPa West 5 km/h 8 km/h 96% 0 mm 0 W/m2
04:24 6.4 °C 5.9 °C 1023.9 hPa West 5.1 km/h 8 km/h 96% 0 mm 0 W/m2
04:29 6.4 °C 5.8 °C 1023.9 hPa West 5 km/h 4.8 km/h 96% 0 mm 0 W/m2
04:34 6.3 °C 5.8 °C 1024.3 hPa West 5.1 km/h 4.8 km/h 96% 0 mm 0 W/m2
04:39 6.3 °C 5.7 °C 1024.3 hPa West 5.1 km/h 6.4 km/h 96% 0 mm 0 W/m2
04:44 6.3 °C 5.7 °C 1024.3 hPa West 4.5 km/h 4.8 km/h 96% 0 mm 0 W/m2
04:49 6.2 °C 5.6 °C 1024.3 hPa WNW 4.7 km/h 6.4 km/h 96% 0 mm 0 W/m2
04:54 6.1 °C 5.5 °C 1024.3 hPa WNW 3.7 km/h 4.8 km/h 96% 0 mm 0 W/m2
04:59 6 °C 5.4 °C 1024.3 hPa WNW 5.1 km/h 4.8 km/h 96% 0 mm 0 W/m2
05:04 6 °C 5.6 °C 1024.3 hPa WNW 4.8 km/h 6.4 km/h 97.3% 0 mm 0 W/m2
05:09 6.1 °C 5.8 °C 1024.3 hPa WNW 5.5 km/h 6.4 km/h 98% 0 mm 0 W/m2
05:14 6 °C 5.7 °C 1024.3 hPa WNW 4.8 km/h 6.4 km/h 98% 0 mm 0 W/m2
05:19 6 °C 5.7 °C 1024.3 hPa WNW 6.3 km/h 9.7 km/h 98% 0 mm 0 W/m2
05:24 6 °C 5.7 °C 1024.3 hPa WNW 6 km/h 8 km/h 98% 0 mm 0 W/m2
05:29 6 °C 5.6 °C 1024.3 hPa West 5.3 km/h 8 km/h 96.9% 0 mm 0 W/m2
05:34 6 °C 5.7 °C 1024.3 hPa West 3.7 km/h 6.4 km/h 97.8% 0 mm 0 W/m2
05:39 6 °C 5.7 °C 1024.3 hPa WNW 4.8 km/h 4.8 km/h 98% 0 mm 0 W/m2
05:44 5.9 °C 5.7 °C 1024.3 hPa WNW 4.5 km/h 4.8 km/h 98% 0 mm 0 W/m2
05:49 5.9 °C 5.6 °C 1024.3 hPa WNW 5.3 km/h 6.4 km/h 98% 0 mm 0 W/m2
05:54 5.9 °C 5.6 °C 1024.3 hPa WNW 3.7 km/h 6.4 km/h 98% 0 mm 0 W/m2
05:59 5.8 °C 5.6 °C 1024.3 hPa WNW 5 km/h 4.8 km/h 98% 0 mm 1 W/m2
06:04 5.9 °C 5.7 °C 1024.3 hPa WNW 4.8 km/h 4.8 km/h 98.6% 0 mm 3 W/m2
06:09 5.9 °C 5.7 °C 1024.3 hPa WNW 4.8 km/h 6.4 km/h 98.7% 0 mm 5 W/m2
06:14 5.8 °C 5.6 °C 1024.3 hPa WNW 5.5 km/h 6.4 km/h 98% 0 mm 8 W/m2
06:19 5.8 °C 5.7 °C 1024.6 hPa WNW 3.9 km/h 6.4 km/h 98.9% 0 mm 14 W/m2
06:24 5.9 °C 5.6 °C 1024.6 hPa NNW 3.2 km/h 4 km/h 98.1% 0 mm 17 W/m2
06:29 5.8 °C 5.6 °C 1024.6 hPa NW 4.8 km/h 4.8 km/h 98% 0 mm 24 W/m2
06:34 5.8 °C 5.5 °C 1024.6 hPa NW 4 km/h 4.8 km/h 98% 0 mm 30 W/m2
06:39 5.8 °C 5.5 °C 1024.6 hPa NW 3.4 km/h 4.8 km/h 98% 0 mm 38 W/m2
06:44 5.8 °C 5.5 °C 1024.6 hPa NW 5.5 km/h 5 km/h 98% 0 mm 48 W/m2
06:49 5.8 °C 5.7 °C 1024.6 hPa West 6.1 km/h 8 km/h 98.7% 0 mm 55 W/m2
06:54 6 °C 5.8 °C 1024.6 hPa WNW 4.8 km/h 8 km/h 99% 0 mm 65 W/m2
06:59 6.1 °C 5.9 °C 1024.6 hPa WNW 5.5 km/h 4.8 km/h 98.6% 0 mm 75 W/m2
07:04 6.2 °C 6.1 °C 1024.9 hPa West 6.4 km/h 8 km/h 99% 0 mm 88 W/m2
07:09 6.3 °C 6.2 °C 1024.9 hPa West 6.6 km/h 8 km/h 99% 0 mm 97 W/m2
07:14 6.5 °C 6.4 °C 1024.9 hPa West 5.8 km/h 8 km/h 99% 0 mm 107 W/m2
07:19 6.8 °C 6.6 °C 1024.9 hPa West 6.6 km/h 8 km/h 99% 0 mm 120 W/m2
07:24 7 °C 6.8 °C 1024.9 hPa West 6.3 km/h 8 km/h 99% 0 mm 128 W/m2
07:29 7.5 °C 7.3 °C 1024.9 hPa West 6.6 km/h 8 km/h 98.8% 0 mm 146 W/m2
07:34 8.1 °C 7.7 °C 1024.9 hPa West 3.7 km/h 9.7 km/h 97.5% 0 mm 157 W/m2
07:39 8.6 °C 7.9 °C 1024.9 hPa West 3.1 km/h 4.8 km/h 95.8% 0 mm 172 W/m2
07:44 9.2 °C 8.4 °C 1024.9 hPa WSW 3.5 km/h 3.2 km/h 94.6% 0 mm 186 W/m2
07:49 9.7 °C 8.7 °C 1024.9 hPa WSW 3.4 km/h 3.2 km/h 93.3% 0 mm 195 W/m2
07:54 10.2 °C 8.8 °C 1024.9 hPa WSW 3.7 km/h 3.2 km/h 91.2% 0 mm 211 W/m2
07:59 10.4 °C 9 °C 1024.9 hPa WSW 4 km/h 4.8 km/h 91% 0 mm 222 W/m2
08:04 10.7 °C 9.1 °C 1024.9 hPa West 3.7 km/h 4.8 km/h 90.2% 0 mm 237 W/m2
08:09 11.1 °C 9.5 °C 1024.9 hPa WSW 2.7 km/h 4.8 km/h 89.9% 0 mm 247 W/m2
08:14 11.6 °C 9.8 °C 1024.9 hPa West 4.7 km/h 4.3 km/h 88.9% 0 mm 262 W/m2
08:19 12.1 °C 10.2 °C 1024.9 hPa West 4 km/h 6.4 km/h 88.5% 0 mm 275 W/m2
08:24 12.6 °C 10.5 °C 1024.9 hPa West 3.5 km/h 3.2 km/h 87.5% 0 mm 284 W/m2
08:29 12.9 °C 10.7 °C 1024.9 hPa WSW 4 km/h 3.2 km/h 86% 0 mm 299 W/m2
08:34 13.3 °C 10.9 °C 1024.9 hPa West 5 km/h 4.8 km/h 85.5% 0 mm 312 W/m2
08:39 13.6 °C 11 °C 1024.9 hPa West 4.5 km/h 4.8 km/h 84.2% 0 mm 325 W/m2
08:44 13.9 °C 11.1 °C 1024.9 hPa West 4.5 km/h 4.8 km/h 83% 0 mm 336 W/m2
08:49 14.2 °C 11.3 °C 1024.9 hPa West 4.7 km/h 4.8 km/h 83% 0 mm 345 W/m2
08:54 14.7 °C 11.4 °C 1024.6 hPa West 4.8 km/h 4.8 km/h 81.2% 0 mm 359 W/m2
08:59 15.2 °C 11.7 °C 1024.6 hPa West 4.8 km/h 6.4 km/h 79.9% 0 mm 367 W/m2
09:04 15.6 °C 11.9 °C 1024.6 hPa West 4.2 km/h 4.8 km/h 79% 0 mm 380 W/m2
09:09 16.1 °C 12.3 °C 1024.6 hPa WSW 4.8 km/h 6.4 km/h 78.1% 0 mm 390 W/m2
09:14 16.6 °C 12.4 °C 1024.6 hPa WSW 3.4 km/h 8 km/h 76.4% 0 mm 399 W/m2
09:19 17.3 °C 12.7 °C 1024.6 hPa WSW 3.5 km/h 3.2 km/h 74.5% 0 mm 411 W/m2
09:24 17.9 °C 13.1 °C 1024.6 hPa SW 4 km/h 4.8 km/h 73.7% 0 mm 417 W/m2
09:29 18.3 °C 13.1 °C 1024.6 hPa SW 3.5 km/h 4.8 km/h 71.5% 0 mm 427 W/m2
09:34 18.8 °C 13.3 °C 1024.3 hPa SW 3.5 km/h 3.2 km/h 70% 0 mm 431 W/m2
09:39 19.4 °C 13.7 °C 1024.3 hPa SW 3.5 km/h 3.2 km/h 69.4% 0 mm 424 W/m2
09:44 19.8 °C 13.5 °C 1024.3 hPa SW 3.4 km/h 4.8 km/h 66.8% 0 mm 333 W/m2
09:49 20.2 °C 13.6 °C 1024.3 hPa SW 3.5 km/h 4.8 km/h 65.4% 0 mm 272 W/m2
09:54 20.6 °C 13.7 °C 1024.3 hPa SW 4.5 km/h 3.5 km/h 64.5% 0 mm 180 W/m2
09:59 21.1 °C 13.8 °C 1024.3 hPa SW 4.8 km/h 4.8 km/h 63.2% 0 mm 140 W/m2
10:04 21.2 °C 13.8 °C 1024.3 hPa SW 3.5 km/h 4.8 km/h 62.5% 0 mm 164 W/m2
10:09 21.6 °C 13.8 °C 1024.3 hPa SW 3.5 km/h 3.2 km/h 61.6% 0 mm 237 W/m2
10:14 21.7 °C 13.6 °C 1024.3 hPa SW 3.5 km/h 3.2 km/h 60% 0 mm 293 W/m2
10:19 21.9 °C 13.8 °C 1024.3 hPa SSW 3.7 km/h 3.2 km/h 60% 0 mm 504 W/m2
10:24 22.3 °C 14.1 °C 1023.9 hPa SW 3.5 km/h 4.8 km/h 59.4% 0 mm 521 W/m2
10:29 22.6 °C 13.9 °C 1023.9 hPa WSW 4.8 km/h 4.8 km/h 58.2% 0 mm 521 W/m2
10:34 22.7 °C 13.9 °C 1023.9 hPa WSW 3.5 km/h 4.8 km/h 57.7% 0 mm 526 W/m2
10:39 23.1 °C 14.3 °C 1023.9 hPa SW 3.5 km/h 3.2 km/h 57.7% 0 mm 532 W/m2
10:44 23.3 °C 14.1 °C 1023.6 hPa WSW 4.3 km/h 3.2 km/h 56% 0 mm 538 W/m2
10:49 23.3 °C 13.8 °C 1023.6 hPa South 3.9 km/h 4.8 km/h 55% 0 mm 539 W/m2
10:54 23.4 °C 13.8 °C 1023.6 hPa SSE 3.7 km/h 3.2 km/h 54.8% 0 mm 541 W/m2
10:59 23.8 °C 14.3 °C 1023.6 hPa NNW 6.1 km/h 5.8 km/h 55% 0 mm 545 W/m2
11:04 24.1 °C 14.3 °C 1023.6 hPa NNE 5.1 km/h 8 km/h 54.3% 0 mm 545 W/m2
11:09 24.2 °C 14.1 °C 1023.2 hPa East 5 km/h 4.8 km/h 53.5% 0 mm 546 W/m2
11:14 24.1 °C 13.7 °C 1023.2 hPa SW 5.3 km/h 6.4 km/h 52.5% 0 mm 546 W/m2
11:19 24.2 °C 13.7 °C 1023.2 hPa WSW 8.2 km/h 8 km/h 52% 0 mm 549 W/m2
11:24 24.5 °C 14 °C 1023.2 hPa SW 7.4 km/h 9.7 km/h 52% 0 mm 548 W/m2
11:29 24.8 °C 13.7 °C 1023.2 hPa SW 8 km/h 9.7 km/h 50.2% 0 mm 546 W/m2
11:34 25.2 °C 14 °C 1022.9 hPa SW 6.8 km/h 9.7 km/h 50% 0 mm 546 W/m2
11:39 25.6 °C 14.3 °C 1022.9 hPa WSW 8.2 km/h 9.7 km/h 49.8% 0 mm 543 W/m2
11:44 25.9 °C 14.3 °C 1022.9 hPa WSW 9.3 km/h 9.7 km/h 48.9% 0 mm 542 W/m2
11:49 26 °C 14.2 °C 1022.9 hPa SW 9.2 km/h 11.3 km/h 48.3% 0 mm 540 W/m2
11:54 25.9 °C 14.1 °C 1022.9 hPa SW 9.2 km/h 11.3 km/h 48% 0 mm 538 W/m2
11:59 25.9 °C 14.1 °C 1022.9 hPa SW 8.2 km/h 11.3 km/h 48% 0 mm 534 W/m2
12:04 25.9 °C 14 °C 1022.6 hPa SW 10 km/h 9.7 km/h 47.8% 0 mm 529 W/m2
12:09 26.1 °C 14.2 °C 1022.6 hPa SW 7.6 km/h 11.3 km/h 47.9% 0 mm 526 W/m2
12:14 26.3 °C 14.3 °C 1022.6 hPa SW 13 km/h 9.7 km/h 47.5% 0 mm 522 W/m2
12:19 26.6 °C 14.2 °C 1022.2 hPa WSW 11.4 km/h 17.7 km/h 46.8% 0 mm 516 W/m2
12:24 26.6 °C 13.7 °C 1022.2 hPa WSW 10.8 km/h 12.9 km/h 45% 0 mm 510 W/m2
12:29 26.6 °C 13.8 °C 1022.2 hPa SW 9.8 km/h 11.3 km/h 45.4% 0 mm 505 W/m2
12:34 26.6 °C 13.6 °C 1022.2 hPa SW 11.6 km/h 11.3 km/h 44.8% 0 mm 499 W/m2
12:39 26.6 °C 13.4 °C 1022.2 hPa SW 11.6 km/h 12.9 km/h 44.3% 0 mm 491 W/m2
12:44 26.5 °C 13.6 °C 1022.2 hPa SW 8.5 km/h 12.9 km/h 45% 0 mm 483 W/m2
12:49 26.7 °C 13.6 °C 1022.2 hPa SW 6.9 km/h 9.7 km/h 44.6% 0 mm 474 W/m2
12:54 26.7 °C 13.6 °C 1022.2 hPa SW 7.7 km/h 8 km/h 44.6% 0 mm 467 W/m2
12:59 26.9 °C 13.9 °C 1021.9 hPa SW 7.1 km/h 9.7 km/h 45% 0 mm 455 W/m2
13:04 27.3 °C 14.3 °C 1021.9 hPa SW 10 km/h 9.7 km/h 45% 0 mm 449 W/m2
13:09 27.5 °C 14.3 °C 1021.9 hPa WSW 8.5 km/h 11.3 km/h 44.5% 0 mm 435 W/m2
13:14 27.6 °C 14.6 °C 1021.9 hPa SW 6.6 km/h 9.7 km/h 45% 0 mm 427 W/m2
13:19 27.6 °C 14.3 °C 1021.9 hPa SW 10 km/h 9.7 km/h 44.1% 0 mm 415 W/m2
13:24 27.6 °C 14.4 °C 1021.9 hPa WSW 7.2 km/h 11.3 km/h 44.5% 0 mm 405 W/m2
13:29 27.6 °C 14.2 °C 1021.9 hPa SW 7.4 km/h 9.7 km/h 44.1% 0 mm 395 W/m2
13:34 27.4 °C 14.3 °C 1021.6 hPa SW 5.6 km/h 9.7 km/h 44.5% 0 mm 382 W/m2
13:39 27.6 °C 14.6 °C 1021.6 hPa SW 6.4 km/h 6.4 km/h 45% 0 mm 371 W/m2
13:44 27.7 °C 14.4 °C 1021.6 hPa WSW 5.3 km/h 8 km/h 44.4% 0 mm 359 W/m2
13:49 27.3 °C 13.8 °C 1021.6 hPa SW 6.6 km/h 6.4 km/h 43.5% 0 mm 346 W/m2
13:54 27.1 °C 13.7 °C 1021.6 hPa SSW 5.8 km/h 8 km/h 44% 0 mm 334 W/m2
13:59 26.9 °C 13.7 °C 1021.6 hPa SSW 4.5 km/h 6.4 km/h 44.2% 0 mm 323 W/m2
14:04 26.8 °C 13.6 °C 1021.6 hPa SSW 4.7 km/h 4.8 km/h 44.3% 0 mm 309 W/m2
14:09 26.8 °C 13.9 °C 1021.6 hPa WSW 4.5 km/h 4.8 km/h 44.9% 0 mm 296 W/m2
14:14 26.9 °C 13.8 °C 1021.6 hPa SW 5.3 km/h 4.8 km/h 44.4% 0 mm 283 W/m2
14:19 26.9 °C 14 °C 1021.6 hPa SSW 5.6 km/h 6.4 km/h 45% 0 mm 268 W/m2
14:24 27.1 °C 13.9 °C 1021.6 hPa SSW 7.2 km/h 8 km/h 44.3% 0 mm 257 W/m2
14:29 27 °C 13.9 °C 1021.6 hPa South 5.8 km/h 8 km/h 44.5% 0 mm 244 W/m2
14:34 26.9 °C 13.7 °C 1021.6 hPa South 5.3 km/h 6.4 km/h 44.1% 0 mm 230 W/m2
14:39 26.9 °C 13.9 °C 1021.6 hPa South 4.8 km/h 6.4 km/h 44.8% 0 mm 215 W/m2
14:44 26.9 °C 13.9 °C 1021.6 hPa SSW 7.1 km/h 6.4 km/h 45% 0 mm 202 W/m2
14:49 26.9 °C 13.9 °C 1021.6 hPa SW 8 km/h 8 km/h 45% 0 mm 189 W/m2
14:54 26.9 °C 14.1 °C 1021.6 hPa SSW 6.9 km/h 9.7 km/h 45.4% 0 mm 176 W/m2
14:59 26.8 °C 13.9 °C 1021.2 hPa SSW 6.8 km/h 8 km/h 45.2% 0 mm 163 W/m2
15:04 26.8 °C 13.9 °C 1021.2 hPa SW 7.7 km/h 8 km/h 45% 0 mm 150 W/m2
15:09 26.7 °C 13.8 °C 1021.6 hPa SW 8 km/h 9.7 km/h 45% 0 mm 138 W/m2
15:14 26.6 °C 13.7 °C 1021.2 hPa SW 6.4 km/h 9.7 km/h 45% 0 mm 124 W/m2
15:19 26.6 °C 13.7 °C 1021.2 hPa SSW 7.1 km/h 8 km/h 45% 0 mm 115 W/m2
15:24 26.5 °C 13.6 °C 1021.2 hPa SW 7.2 km/h 9.7 km/h 45% 0 mm 102 W/m2
15:29 26.4 °C 13.5 °C 1021.2 hPa SW 6.3 km/h 9.7 km/h 45% 0 mm 91 W/m2
15:34 26.2 °C 13.6 °C 1021.2 hPa SW 6 km/h 8 km/h 45.7% 0 mm 80 W/m2
15:39 26.1 °C 13.8 °C 1021.2 hPa SW 5.5 km/h 8 km/h 46.6% 0 mm 68 W/m2
15:44 25.9 °C 13.8 °C 1021.2 hPa SW 5.5 km/h 6.4 km/h 47% 0 mm 59 W/m2
15:49 25.8 °C 13.6 °C 1021.2 hPa SW 4.3 km/h 6.4 km/h 47% 0 mm 50 W/m2
15:54 25.6 °C 13.8 °C 1021.2 hPa SW 5 km/h 4.8 km/h 47.9% 0 mm 41 W/m2
15:59 25.4 °C 13.6 °C 1021.2 hPa SW 5.6 km/h 8 km/h 48% 0 mm 34 W/m2
16:04 25.2 °C 13.4 °C 1021.2 hPa SW 3.7 km/h 8 km/h 48% 0 mm 25 W/m2
16:09 24.9 °C 13.2 °C 1021.2 hPa SW 4.3 km/h 3.2 km/h 48.3% 0 mm 20 W/m2
16:14 24.6 °C 13.2 °C 1021.2 hPa SW 3.5 km/h 4.8 km/h 49.2% 0 mm 16 W/m2
16:19 24.3 °C 13 °C 1021.2 hPa SW 3.7 km/h 3.2 km/h 49.4% 0 mm 11 W/m2
16:24 23.9 °C 12.9 °C 1021.2 hPa SW 3.5 km/h 4.8 km/h 50% 0 mm 6 W/m2
16:29 23.6 °C 13 °C 1021.2 hPa SW 2.1 km/h 3.2 km/h 51.6% 0 mm 3 W/m2
16:34 23.1 °C 13.1 °C 1021.2 hPa SW 2.9 km/h 3.2 km/h 53.2% 0 mm 2 W/m2
16:39 22.7 °C 12.8 °C 1021.6 hPa SSW 2.9 km/h 3.2 km/h 53.8% 0 mm 0 W/m2
16:44 22.2 °C 12.6 °C 1021.6 hPa WSW 4 km/h 3.5 km/h 54.5% 0 mm 0 W/m2
16:49 21.8 °C 12.2 °C 1021.6 hPa WSW 3.7 km/h 4.8 km/h 54.6% 0 mm 0 W/m2
16:54 21.4 °C 12.3 °C 1021.6 hPa SW 3.5 km/h 3.2 km/h 56.2% 0 mm 0 W/m2
16:59 21.1 °C 12.2 °C 1021.6 hPa South 4.5 km/h 4.8 km/h 57% 0 mm 0 W/m2
17:04 20.7 °C 12.1 °C 1021.6 hPa SSE 5.8 km/h 8 km/h 57.7% 0 mm 0 W/m2
17:09 20.4 °C 11.9 °C 1021.6 hPa South 3.7 km/h 6.4 km/h 58% 0 mm 0 W/m2
17:14 20.2 °C 11.7 °C 1021.6 hPa South 4 km/h 4.8 km/h 58.5% 0 mm 0 W/m2
17:19 19.9 °C 11.4 °C 1021.6 hPa SSW 3.1 km/h 4.8 km/h 58.2% 0 mm 0 W/m2
17:24 19.7 °C 11.4 °C 1021.9 hPa SSE 3.1 km/h 3.2 km/h 59% 0 mm 0 W/m2
17:29 19.3 °C 11.1 °C 1021.6 hPa South 3.5 km/h 4.8 km/h 59% 0 mm 0 W/m2
17:34 19.1 °C 11 °C 1021.9 hPa SSW 2.9 km/h 3.2 km/h 59.4% 0 mm 0 W/m2
17:39 18.8 °C 10.9 °C 1021.9 hPa West 1.4 km/h 3.2 km/h 60% 0 mm 0 W/m2
17:44 18.6 °C 10.9 °C 1021.9 hPa NW 1.4 km/h 1.6 km/h 60.8% 0 mm 0 W/m2
17:49 18.3 °C 10.8 °C 1021.9 hPa NNW 1.4 km/h 3.2 km/h 61.8% 0 mm 0 W/m2
17:54 17.9 °C 10.7 °C 1021.9 hPa NNW 3.1 km/h 2.1 km/h 62.3% 0 mm 0 W/m2
17:59 17.7 °C 10.5 °C 1021.9 hPa NNW 1.4 km/h 3.2 km/h 63% 0 mm 0 W/m2
18:04 17.3 °C 10.4 °C 1021.9 hPa Calm   1.6 km/h 63.9% 0 mm 0 W/m2
18:09 16.9 °C 10.3 °C 1022.2 hPa SW 0.6 km/h 1.1 km/h 64.9% 0 mm 0 W/m2
18:14 16.7 °C 9.8 °C 1022.2 hPa SW 1.1 km/h 3.2 km/h 64.1% 0 mm 0 W/m2
18:19 16.2 °C 9.4 °C 1022.2 hPa SW 3.2 km/h 3.2 km/h 64.1% 0 mm 0 W/m2
18:24 15.8 °C 9.2 °C 1022.2 hPa WSW 2.6 km/h 3.2 km/h 64.9% 0 mm 0 W/m2
18:29 15.6 °C 9.1 °C 1022.2 hPa West 3.7 km/h 4 km/h 65.2% 0 mm 0 W/m2
18:34 15.2 °C 9.2 °C 1022.2 hPa WSW 3.5 km/h 4.8 km/h 67% 0 mm 0 W/m2
18:39 15 °C 9.1 °C 1022.2 hPa WSW 1.8 km/h 3.2 km/h 67.8% 0 mm 0 W/m2
18:44 14.8 °C 8.9 °C 1022.2 hPa WSW 1.6 km/h 3.2 km/h 68% 0 mm 0 W/m2
18:49 14.7 °C 8.8 °C 1022.2 hPa WSW 1.6 km/h 3.2 km/h 68% 0 mm 0 W/m2
18:54 14.3 °C 8.7 °C 1022.2 hPa SW 1.9 km/h 1.8 km/h 68.9% 0 mm 0 W/m2
18:59 14.1 °C 8.7 °C 1022.2 hPa West 1.6 km/h 3.2 km/h 69.8% 0 mm 0 W/m2
19:04 13.8 °C 8.6 °C 1022.2 hPa West 2.3 km/h 1.8 km/h 70.7% 0 mm 0 W/m2
19:09 13.7 °C 8.8 °C 1022.2 hPa WNW 2.4 km/h 3.2 km/h 72% 0 mm 0 W/m2
19:14 13.6 °C 8.8 °C 1022.2 hPa WNW 3.2 km/h 3.2 km/h 72.9% 0 mm 0 W/m2
19:19 13.3 °C 8.6 °C 1022.2 hPa NW 3.2 km/h 3.2 km/h 73% 0 mm 0 W/m2
19:24 13.2 °C 8.6 °C 1022.2 hPa WNW 1.6 km/h 3.2 km/h 73.4% 0 mm 0 W/m2
19:29 13.1 °C 8.6 °C 1022.2 hPa West 1.6 km/h 3.2 km/h 74% 0 mm 0 W/m2
19:34 12.9 °C 8.4 °C 1022.2 hPa West 2.1 km/h 3.2 km/h 74% 0 mm 0 W/m2
19:39 12.8 °C 8.3 °C 1022.2 hPa WNW 2.9 km/h 3.2 km/h 74% 0 mm 0 W/m2
19:44 12.7 °C 8.3 °C 1022.2 hPa WNW 3.9 km/h 4.8 km/h 74.9% 0 mm 0 W/m2
19:49 12.6 °C 8.2 °C 1022.2 hPa WNW 3.2 km/h 4.8 km/h 75% 0 mm 0 W/m2
19:54 12.4 °C 8.2 °C 1022.6 hPa WNW 2.1 km/h 3.2 km/h 75% 0 mm 0 W/m2
19:59 12.3 °C 8.1 °C 1022.6 hPa NW 1.8 km/h 3.2 km/h 75.4% 0 mm 0 W/m2
20:04 12.2 °C 7.9 °C 1022.6 hPa NW 1.9 km/h 3.2 km/h 75% 0 mm 0 W/m2
20:09 12 °C 7.8 °C 1022.6 hPa WNW 3.1 km/h 3.2 km/h 75.4% 0 mm 0 W/m2
20:14 11.8 °C 7.9 °C 1022.6 hPa WNW 2.6 km/h 3.2 km/h 77% 0 mm 0 W/m2
20:19 11.7 °C 7.8 °C 1022.6 hPa West 5.1 km/h 4.7 km/h 77.2% 0 mm 0 W/m2
20:24 11.6 °C 7.9 °C 1022.6 hPa West 5.5 km/h 6.4 km/h 78% 0 mm 0 W/m2
20:29 11.6 °C 7.9 °C 1022.6 hPa WNW 4.7 km/h 6.4 km/h 78% 0 mm 0 W/m2
20:34 11.6 °C 7.9 °C 1022.6 hPa WNW 7.1 km/h 6.4 km/h 78.4% 0 mm 0 W/m2
20:39 11.7 °C 7.9 °C 1022.6 hPa West 5.1 km/h 8 km/h 78% 0 mm 0 W/m2
20:44 11.7 °C 7.9 °C 1022.9 hPa West 2.3 km/h 6.4 km/h 78% 0 mm 0 W/m2
20:49 11.6 °C 7.8 °C 1022.9 hPa WNW 4.8 km/h 5 km/h 78% 0 mm 0 W/m2
20:54 11.4 °C 7.8 °C 1022.9 hPa West 4.5 km/h 6.4 km/h 78.5% 0 mm 0 W/m2
20:59 11.3 °C 7.6 °C 1022.9 hPa West 3.5 km/h 4.8 km/h 78.3% 0 mm 0 W/m2
21:04 11 °C 7.3 °C 1022.9 hPa West 3.7 km/h 3.2 km/h 78% 0 mm 0 W/m2
21:09 10.8 °C 7.2 °C 1022.9 hPa WNW 4.8 km/h 4 km/h 78.4% 0 mm 0 W/m2
21:14 10.7 °C 7.3 °C 1022.9 hPa West 6 km/h 4.8 km/h 79.6% 0 mm 0 W/m2
21:19 10.6 °C 7.3 °C 1022.9 hPa West 5.8 km/h 8 km/h 80% 0 mm 0 W/m2
21:24 10.6 °C 7.3 °C 1022.9 hPa West 7.1 km/h 6.4 km/h 80% 0 mm 0 W/m2
21:29 10.6 °C 7.3 °C 1022.9 hPa West 5.3 km/h 8 km/h 80.2% 0 mm 0 W/m2
21:34 10.5 °C 7.2 °C 1022.9 hPa West 3.7 km/h 6.4 km/h 80.3% 0 mm 0 W/m2
21:39 10.4 °C 7.1 °C 1022.9 hPa West 3.2 km/h 3.2 km/h 80% 0 mm 0 W/m2
21:44 10.3 °C 7.1 °C 1022.9 hPa WNW 5.1 km/h 4.7 km/h 80.2% 0 mm 0 W/m2
21:49 10.2 °C 7.2 °C 1022.9 hPa West 7.2 km/h 6.4 km/h 81.4% 0 mm 0 W/m2
21:54 10.2 °C 7.5 °C 1022.9 hPa West 6.9 km/h 9.7 km/h 83% 0 mm 0 W/m2
21:59 10.3 °C 7.4 °C 1022.9 hPa West 5.1 km/h 8 km/h 82.4% 0 mm 0 W/m2
22:04 10.2 °C 7.1 °C 1022.9 hPa West 3.5 km/h 4.8 km/h 81.1% 0 mm 0 W/m2
22:09 9.9 °C 6.8 °C 1022.9 hPa WNW 4.5 km/h 4.8 km/h 81% 0 mm 0 W/m2
22:14 9.8 °C 6.7 °C 1022.9 hPa WNW 4.8 km/h 4.8 km/h 81% 0 mm 0 W/m2
22:19 9.6 °C 6.4 °C 1022.9 hPa West 5.5 km/h 4.8 km/h 81% 0 mm 0 W/m2
22:24 9.3 °C 6.5 °C 1022.9 hPa West 5.5 km/h 4.8 km/h 82.4% 0 mm 0 W/m2
22:29 9.2 °C 6.4 °C 1022.9 hPa West 6 km/h 6.4 km/h 83% 0 mm 0 W/m2
22:34 9.1 °C 6.6 °C 1022.9 hPa West 5.8 km/h 8 km/h 83.9% 0 mm 0 W/m2
22:39 9.1 °C 6.6 °C 1022.9 hPa WNW 4.8 km/h 8 km/h 84% 0 mm 0 W/m2
22:44 9.1 °C 6.6 °C 1022.9 hPa West 5.1 km/h 4.8 km/h 84% 0 mm 0 W/m2
22:49 9 °C 6.6 °C 1022.9 hPa West 6.1 km/h 8 km/h 84.6% 0 mm 0 W/m2
22:54 9.1 °C 6.7 °C 1022.9 hPa WNW 5.6 km/h 6.4 km/h 85% 0 mm 0 W/m2
22:59 9.2 °C 6.8 °C 1022.9 hPa West 5.5 km/h 6.4 km/h 85% 0 mm 0 W/m2
23:04 9.2 °C 6.8 °C 1022.9 hPa WNW 5.3 km/h 6.4 km/h 85% 0 mm 0 W/m2
23:09 9.2 °C 6.8 °C 1022.9 hPa WNW 5.1 km/h 4.8 km/h 85% 0 mm 0 W/m2
23:14 9.2 °C 6.8 °C 1022.9 hPa West 5.6 km/h 6.4 km/h 85% 0 mm 0 W/m2
23:19 9.2 °C 6.7 °C 1022.9 hPa West 6.3 km/h 6.4 km/h 84.8% 0 mm 0 W/m2
23:24 9.1 °C 6.7 °C 1022.9 hPa WNW 5.8 km/h 8 km/h 85% 0 mm 0 W/m2
23:29 9.1 °C 6.7 °C 1022.6 hPa WNW 4.8 km/h 4.8 km/h 85% 0 mm 0 W/m2
23:34 9 °C 6.6 °C 1022.6 hPa WNW 5 km/h 4.8 km/h 85% 0 mm 0 W/m2
23:39 9 °C 6.6 °C 1022.6 hPa WNW 3.7 km/h 4.8 km/h 85% 0 mm 0 W/m2
23:44 8.9 °C 6.6 °C 1022.6 hPa WNW 3.4 km/h 3.2 km/h 85% 0 mm 0 W/m2
23:49 8.8 °C 6.4 °C 1022.6 hPa WNW 4.7 km/h 4.8 km/h 85% 0 mm 0 W/m2
23:54 8.7 °C 6.3 °C 1022.6 hPa NW 4.2 km/h 4.8 km/h 85% 0 mm 0 W/m2
23:59 8.6 °C 6.3 °C 1022.6 hPa WNW 5 km/h 6.4 km/h 85.5% 0 mm 0 W/m2
Knjazevac, Serbia
Compliments of Weather Underground - 4 mb